マレ の空港の天気 - METARとTAF

マレ国際空港 ( VRMM / MLE ) - モルディブ Hulhule Island, North Male Atoll
飛行場実況気象(Metar)
観測時間10/16 11:00 MVT (10/16 06:00 UTC)
風向・風速南南西 3m/s
視程10km以上
天気現象
少しの雲 雲底高度 550m
気温31℃
湿度66%
気圧1013hPa
METARVRMM 160600Z 20006KT 9999 FEW018 31/24 Q1013 NOSIG
過去の天気等 Google飛行場航空写真 Wunderground天気予報

過去48時間のMETAR

飛行場予報(TAF)
発表時間: 10/16 10:00 MVT (10/16 05:00 UTC)
予報対象時間: 16日11時 MVT ~ 17日17時 MVT
風向・風速南 4m/s
視程10km以上
少しの雲 雲底高度 580m
16日14時 MVT ~ 16日20時 MVT に一時的に
少しの積乱雲 雲底高度 580m
TAF VRMM 160500Z 1606/1712 19007KT 9999 FEW019
TEMPO 1609/1615 FEW019CB